Ironton, Texas
Current Conditions -  °F | °C
As of 9:55 AM on Sunday 21 Dec 2014 (Local Time) from KJSO Reporting Station
Haze Haze  
Wind Chill: 46°   Ceiling: 1500
Heat Index: 46°   Visibility: 4mi
Dew Point: 45°   Wind: 3mph
Humidity: 97%   Direction: 130°SE
Pressure: 30.14"   Gusts: NA
Location:  31.9649°N, 95.3036°W
Report Text: KJSO 211555Z AUTO 13003KT 4SM BR OVC015 07/07 A3014 RMK AO2 T00760071
Loading
Personal Weather Stations






























Interactive Weather Map New forecast layout! Learn more

10-Day Weather Forecast

Advertisements
Track Severe Weather on mobile